createdAt,value
2017-11-22T00:01:14.739Z,8.30
2017-11-22T00:03:43.035Z,8.20
2017-11-22T00:06:11.574Z,8.20
2017-11-22T00:08:39.149Z,8.10
2017-11-22T00:11:06.678Z,8.00
2017-11-22T00:13:34.248Z,8.20
2017-11-22T00:16:02.754Z,8.10
2017-11-22T00:18:30.439Z,8.00
2017-11-22T00:20:57.974Z,8.00
2017-11-22T00:23:26.312Z,8.00
2017-11-22T00:25:54.726Z,8.00
2017-11-22T00:28:22.276Z,8.00
2017-11-22T00:30:49.863Z,8.00
2017-11-22T00:33:17.416Z,7.90
2017-11-22T00:35:44.992Z,7.90
2017-11-22T00:38:13.088Z,7.90
2017-11-22T00:40:40.655Z,7.80
2017-11-22T00:43:08.186Z,7.80
2017-11-22T00:45:36.520Z,7.80
2017-11-22T00:48:04.738Z,7.80
2017-11-22T00:50:32.305Z,7.70
2017-11-22T00:52:59.905Z,7.70
2017-11-22T00:55:28.217Z,7.80
2017-11-22T00:57:55.828Z,7.70
2017-11-22T01:00:23.366Z,7.80
2017-11-22T01:02:50.961Z,7.70
2017-11-22T01:05:18.529Z,7.70
2017-11-22T01:07:46.097Z,7.70
2017-11-22T01:10:14.450Z,7.70
2017-11-22T01:12:42.850Z,7.70
2017-11-22T01:15:10.429Z,7.70
2017-11-22T01:17:38.768Z,7.70
2017-11-22T01:20:07.124Z,7.70
2017-11-22T01:22:34.698Z,7.60
2017-11-22T01:25:02.224Z,7.60
2017-11-22T01:27:29.853Z,7.60
2017-11-22T01:29:57.448Z,7.60
2017-11-22T01:32:25.014Z,7.60
2017-11-22T01:34:52.555Z,7.50
2017-11-22T01:37:20.146Z,7.50
2017-11-22T01:39:48.465Z,7.50
2017-11-22T01:42:16.051Z,7.60
2017-11-22T01:44:43.661Z,7.50
2017-11-22T01:47:12.273Z,7.50
2017-11-22T01:49:39.846Z,7.60
2017-11-22T01:52:07.381Z,7.60
2017-11-22T01:54:35.059Z,7.60
2017-11-22T01:57:02.626Z,7.60
2017-11-22T01:59:30.745Z,7.50
2017-11-22T02:01:58.314Z,7.50
2017-11-22T02:04:25.876Z,7.60
2017-11-22T02:06:54.235Z,7.70
2017-11-22T02:09:21.805Z,7.70
2017-11-22T02:11:49.385Z,7.60
2017-11-22T02:14:16.920Z,7.60
2017-11-22T02:16:44.481Z,7.60
2017-11-22T02:19:12.796Z,7.60
2017-11-22T02:21:40.360Z,7.60
2017-11-22T02:24:07.896Z,7.60
2017-11-22T02:26:36.230Z,7.80
2017-11-22T02:29:03.761Z,7.70
2017-11-22T02:31:31.320Z,7.80
2017-11-22T02:33:59.816Z,7.90
2017-11-22T02:36:29.212Z,7.90
2017-11-22T02:38:56.741Z,7.90
2017-11-22T02:41:24.320Z,7.90
2017-11-22T02:43:51.855Z,7.90
2017-11-22T02:46:20.216Z,7.90
2017-11-22T02:48:48.336Z,7.90
2017-11-22T02:51:15.909Z,7.90
2017-11-22T02:53:45.049Z,7.90
2017-11-22T02:56:14.548Z,7.90
2017-11-22T02:58:42.872Z,8.00
2017-11-22T03:01:10.532Z,8.00
2017-11-22T03:03:38.069Z,8.00
2017-11-22T03:06:06.541Z,7.90
2017-11-22T03:08:34.530Z,7.90
2017-11-22T03:11:02.103Z,8.00
2017-11-22T03:13:29.638Z,8.00
2017-11-22T03:15:57.213Z,8.00
2017-11-22T03:18:24.771Z,8.10
2017-11-22T03:20:52.364Z,8.20
2017-11-22T03:23:19.889Z,8.20
2017-11-22T03:25:48.235Z,8.30
2017-11-22T03:28:15.776Z,8.20
2017-11-22T03:30:43.341Z,8.20
2017-11-22T03:33:11.720Z,8.20
2017-11-22T03:35:40.057Z,8.30
2017-11-22T03:38:07.698Z,8.20
2017-11-22T03:40:36.395Z,8.30
2017-11-22T03:43:04.792Z,8.30
2017-11-22T03:45:33.302Z,8.40
2017-11-22T03:48:02.818Z,8.40
2017-11-22T03:50:35.934Z,8.30
2017-11-22T03:53:09.178Z,8.30
2017-11-22T03:55:36.776Z,8.30
2017-11-22T03:58:05.992Z,8.30
2017-11-22T04:00:34.318Z,8.30
2017-11-22T04:03:07.437Z,8.30
2017-11-22T04:05:37.724Z,8.20
2017-11-22T04:08:08.303Z,8.10
2017-11-22T04:10:38.804Z,8.10
2017-11-22T04:13:07.116Z,8.20
2017-11-22T04:15:34.753Z,8.10
2017-11-22T04:18:02.284Z,8.00
2017-11-22T04:20:30.654Z,8.10
2017-11-22T04:22:58.255Z,8.20
2017-11-22T04:25:25.893Z,8.20
2017-11-22T04:27:54.214Z,8.10
2017-11-22T04:30:21.845Z,8.10
2017-11-22T04:32:49.427Z,8.00
2017-11-22T04:35:17.772Z,7.90
2017-11-22T04:37:45.305Z,7.90
2017-11-22T04:40:12.881Z,7.90
2017-11-22T04:42:40.433Z,7.90
2017-11-22T04:45:08.761Z,7.90
2017-11-22T04:47:36.326Z,7.90
2017-11-22T04:50:03.909Z,7.90
2017-11-22T04:52:31.436Z,7.80
2017-11-22T04:54:59.001Z,7.80
2017-11-22T04:57:27.978Z,7.80
2017-11-22T04:59:55.629Z,7.80
2017-11-22T05:02:23.176Z,7.70
2017-11-22T05:04:51.525Z,7.80
2017-11-22T05:07:19.550Z,7.80
2017-11-22T05:09:47.897Z,7.70
2017-11-22T05:12:15.468Z,7.70
2017-11-22T05:14:43.036Z,7.80
2017-11-22T05:17:10.579Z,7.70
2017-11-22T05:19:38.189Z,7.80
2017-11-22T05:22:06.695Z,7.80
2017-11-22T05:24:34.856Z,7.70
2017-11-22T05:27:03.236Z,7.60
2017-11-22T05:29:31.643Z,7.70
2017-11-22T05:31:59.718Z,7.70
2017-11-22T05:34:27.292Z,7.80
2017-11-22T05:36:55.777Z,7.80
2017-11-22T05:39:23.370Z,7.70
2017-11-22T05:41:51.519Z,7.70
2017-11-22T05:44:20.619Z,7.90
2017-11-22T05:46:49.793Z,7.90
2017-11-22T05:49:19.116Z,7.80
2017-11-22T05:51:46.705Z,7.90
2017-11-22T05:54:15.136Z,7.90
2017-11-22T05:56:43.510Z,7.90
2017-11-22T05:59:12.389Z,7.80
2017-11-22T06:01:39.966Z,7.80
2017-11-22T06:04:08.374Z,7.70
2017-11-22T06:06:36.676Z,7.80
2017-11-22T06:09:05.567Z,7.70
2017-11-22T06:11:33.901Z,7.70
2017-11-22T06:14:01.886Z,7.70
2017-11-22T06:16:29.456Z,7.80
2017-11-22T06:18:57.020Z,7.80
2017-11-22T06:21:24.552Z,7.80
2017-11-22T06:23:52.695Z,7.70
2017-11-22T06:26:20.248Z,7.70
2017-11-22T06:28:47.844Z,7.70
2017-11-22T06:31:16.443Z,7.70
2017-11-22T06:33:44.016Z,7.70
2017-11-22T06:36:11.547Z,7.70
2017-11-22T06:38:39.907Z,7.70
2017-11-22T06:41:07.443Z,7.70
2017-11-22T06:43:35.022Z,7.70
2017-11-22T06:46:02.562Z,7.70
2017-11-22T06:48:30.894Z,7.70
2017-11-22T06:50:58.434Z,7.70
2017-11-22T06:53:26.813Z,7.50
2017-11-22T06:55:55.118Z,7.60
2017-11-22T06:58:23.483Z,7.60
2017-11-22T07:00:52.384Z,7.60
2017-11-22T07:03:26.344Z,7.60
2017-11-22T07:05:53.901Z,7.60
2017-11-22T07:08:22.753Z,7.40
2017-11-22T07:10:52.109Z,7.40
2017-11-22T07:13:19.703Z,7.40
2017-11-22T07:15:47.228Z,7.40
2017-11-22T07:18:14.789Z,7.40
2017-11-22T07:20:42.307Z,7.50
2017-11-22T07:23:10.628Z,7.50
2017-11-22T07:25:38.152Z,7.50
2017-11-22T07:28:05.715Z,7.50
2017-11-22T07:30:33.241Z,7.60
2017-11-22T07:33:00.908Z,7.60
2017-11-22T07:35:34.013Z,7.60
2017-11-22T07:38:01.583Z,7.50
2017-11-22T07:40:30.065Z,7.60
2017-11-22T07:42:57.639Z,7.50
2017-11-22T07:45:25.177Z,7.60
2017-11-22T07:47:58.407Z,7.60
2017-11-22T07:50:26.716Z,7.60
2017-11-22T07:52:54.285Z,7.60
2017-11-22T07:55:21.817Z,7.60
2017-11-22T07:57:50.222Z,7.60
2017-11-22T08:00:18.530Z,7.70
2017-11-22T08:02:51.896Z,7.70
2017-11-22T08:05:19.428Z,7.70
2017-11-22T08:07:46.996Z,7.80
2017-11-22T08:10:14.525Z,7.80
2017-11-22T08:12:42.087Z,7.80
2017-11-22T08:15:09.611Z,8.00
2017-11-22T08:17:37.177Z,8.00
2017-11-22T08:20:04.705Z,8.00
2017-11-22T08:22:32.279Z,8.10
2017-11-22T08:24:59.830Z,8.20
2017-11-22T08:27:27.396Z,8.30
2017-11-22T08:29:54.928Z,8.30
2017-11-22T08:32:23.257Z,8.30
2017-11-22T08:34:50.778Z,8.30
2017-11-22T08:37:19.112Z,8.50
2017-11-22T08:39:46.628Z,8.50
2017-11-22T08:42:14.196Z,8.60
2017-11-22T08:44:41.724Z,8.70
2017-11-22T08:47:09.298Z,8.70
2017-11-22T08:49:36.832Z,8.70
2017-11-22T08:52:05.168Z,8.90
2017-11-22T08:54:38.625Z,8.90
2017-11-22T08:57:11.776Z,9.00
2017-11-22T09:02:45.689Z,9.50
2017-11-22T09:05:13.220Z,9.50
2017-11-22T09:07:40.803Z,9.60
2017-11-22T09:10:08.351Z,9.70
2017-11-22T09:12:41.702Z,9.80
2017-11-22T09:15:09.246Z,9.90
2017-11-22T09:17:36.827Z,10.10
2017-11-22T09:20:06.297Z,10.10
2017-11-22T09:22:33.872Z,10.30
2017-11-22T09:25:03.200Z,10.40
2017-11-22T09:27:36.402Z,10.40
2017-11-22T09:30:18.617Z,10.40
2017-11-22T09:32:46.194Z,10.50
2017-11-22T09:35:15.524Z,10.60
2017-11-22T09:37:43.104Z,10.80
2017-11-22T09:40:10.636Z,10.80
2017-11-22T09:42:38.968Z,10.80
2017-11-22T09:45:07.451Z,10.80
2017-11-22T09:47:35.030Z,11.00
2017-11-22T09:50:02.560Z,11.00
2017-11-22T09:52:30.909Z,11.10
2017-11-22T09:54:58.448Z,11.00
2017-11-22T09:57:26.024Z,11.10
2017-11-22T09:59:53.594Z,11.20
2017-11-22T10:02:21.164Z,11.30
2017-11-22T10:04:49.501Z,11.50
2017-11-22T10:07:17.229Z,11.80
2017-11-22T10:09:44.782Z,12.00
2017-11-22T10:12:13.135Z,12.10
2017-11-22T10:14:40.687Z,12.10
2017-11-22T10:17:12.621Z,12.20
2017-11-22T10:19:43.913Z,12.30
2017-11-22T10:22:11.508Z,12.30
2017-11-22T10:24:43.973Z,12.50
2017-11-22T10:27:17.256Z,12.80
2017-11-22T10:29:46.721Z,13.10
2017-11-22T10:32:20.019Z,13.20
2017-11-22T10:34:49.017Z,13.30
2017-11-22T10:37:16.592Z,13.50
2017-11-22T10:39:44.682Z,13.70
2017-11-22T10:42:13.041Z,13.90
2017-11-22T10:44:40.581Z,14.00
2017-11-22T10:47:08.170Z,14.20
2017-11-22T10:49:36.494Z,14.40
2017-11-22T10:52:04.094Z,14.40
2017-11-22T10:54:31.649Z,14.50
2017-11-22T10:56:59.232Z,14.50
2017-11-22T10:59:26.772Z,14.50
2017-11-22T11:01:54.349Z,14.50
2017-11-22T11:04:21.882Z,14.50
2017-11-22T11:06:49.481Z,14.50
2017-11-22T11:09:17.032Z,14.40
2017-11-22T11:11:45.381Z,14.40
2017-11-22T11:14:12.917Z,14.30
2017-11-22T11:16:40.511Z,14.30
2017-11-22T11:19:08.066Z,14.40
2017-11-22T11:21:35.670Z,14.50
2017-11-22T11:24:03.503Z,14.60
2017-11-22T11:26:31.853Z,14.70
2017-11-22T11:28:59.396Z,14.70
2017-11-22T11:31:26.985Z,14.80
2017-11-22T11:33:54.529Z,14.80
2017-11-22T11:36:32.883Z,14.90
2017-11-22T11:39:00.413Z,14.90
2017-11-22T11:41:28.749Z,14.90
2017-11-22T11:43:56.286Z,14.90
2017-11-22T11:46:23.886Z,14.90
2017-11-22T11:48:51.443Z,14.90
2017-11-22T11:51:19.213Z,15.00
2017-11-22T11:53:46.818Z,14.70
2017-11-22T11:56:14.389Z,14.70
2017-11-22T11:58:42.121Z,14.90
2017-11-22T12:01:09.704Z,15.00
2017-11-22T12:03:37.240Z,14.90
2017-11-22T12:06:04.847Z,14.80
2017-11-22T12:08:32.372Z,14.70
2017-11-22T12:10:59.944Z,14.60
2017-11-22T12:13:27.477Z,14.50
2017-11-22T12:15:55.049Z,14.40
2017-11-22T12:18:22.627Z,14.40
2017-11-22T12:21:04.810Z,14.30
2017-11-22T12:23:35.973Z,14.20
2017-11-22T12:26:04.315Z,14.30
2017-11-22T12:28:31.844Z,14.20
2017-11-22T12:31:00.175Z,14.50
2017-11-22T12:33:27.707Z,14.40
2017-11-22T12:35:56.009Z,14.60
2017-11-22T12:38:23.584Z,14.50
2017-11-22T12:40:51.115Z,14.50
2017-11-22T12:43:18.727Z,14.60
2017-11-22T12:45:46.256Z,14.60
2017-11-22T12:48:14.600Z,14.60
2017-11-22T12:50:42.150Z,14.60
2017-11-22T12:53:09.733Z,14.70
2017-11-22T12:55:37.346Z,14.70
2017-11-22T12:58:14.494Z,14.60
2017-11-22T13:00:42.053Z,14.60
2017-11-22T13:03:10.399Z,14.50
2017-11-22T13:05:37.933Z,14.50
2017-11-22T13:08:05.520Z,14.60
2017-11-22T13:10:33.922Z,14.60
2017-11-22T13:13:01.545Z,14.50
2017-11-22T13:15:30.542Z,14.60
2017-11-22T13:17:58.141Z,14.60
2017-11-22T13:20:26.514Z,14.60
2017-11-22T13:22:54.137Z,14.50
2017-11-22T13:25:21.727Z,14.30
2017-11-22T13:27:49.376Z,14.10
2017-11-22T13:30:16.907Z,14.10
2017-11-22T13:32:45.300Z,14.00
2017-11-22T13:35:12.828Z,13.90
2017-11-22T13:37:40.433Z,13.90
2017-11-22T13:40:11.996Z,13.70
2017-11-22T13:42:40.344Z,13.40
2017-11-22T13:45:08.660Z,13.30
2017-11-22T13:47:36.241Z,13.20
2017-11-22T13:50:03.883Z,13.10
2017-11-22T13:52:31.466Z,12.90
2017-11-22T13:54:59.011Z,12.70
2017-11-22T13:57:27.422Z,12.50
2017-11-22T13:59:54.963Z,12.40
2017-11-22T14:02:23.288Z,12.20
2017-11-22T14:04:50.817Z,12.20
2017-11-22T14:07:18.389Z,12.10
2017-11-22T14:09:45.915Z,12.10
2017-11-22T14:12:13.482Z,11.90
2017-11-22T14:14:41.020Z,12.00
2017-11-22T14:17:09.349Z,12.10
2017-11-22T14:19:36.906Z,12.10
2017-11-22T14:22:05.405Z,12.20
2017-11-22T14:24:33.080Z,12.20
2017-11-22T14:27:00.660Z,12.20
2017-11-22T14:29:28.189Z,12.10
2017-11-22T14:31:55.756Z,12.10
2017-11-22T14:34:23.301Z,12.00
2017-11-22T14:36:50.875Z,12.00
2017-11-22T14:39:19.006Z,12.10
2017-11-22T14:41:47.357Z,11.90
2017-11-22T14:44:15.545Z,11.80
2017-11-22T14:46:43.154Z,11.80
2017-11-22T14:49:15.298Z,11.70
2017-11-22T14:51:42.934Z,11.70
2017-11-22T14:54:11.349Z,11.60
2017-11-22T14:56:42.649Z,11.50
2017-11-22T14:59:10.984Z,11.40
2017-11-22T15:01:38.557Z,11.40
2017-11-22T15:04:06.090Z,11.40
2017-11-22T15:06:34.651Z,11.40
2017-11-22T15:09:03.737Z,11.20
2017-11-22T15:11:31.319Z,11.40
2017-11-22T15:14:01.754Z,11.20
2017-11-22T15:16:29.322Z,11.10
2017-11-22T15:18:56.857Z,11.10
2017-11-22T15:21:24.433Z,10.90
2017-11-22T15:23:51.973Z,10.90
2017-11-22T15:26:20.743Z,10.90
2017-11-22T15:28:49.196Z,10.80
2017-11-22T15:31:17.773Z,10.80
2017-11-22T15:33:45.403Z,10.70
2017-11-22T15:36:12.992Z,10.80
2017-11-22T15:38:40.540Z,10.80
2017-11-22T15:41:08.116Z,10.70
2017-11-22T15:43:37.875Z,10.60
2017-11-22T15:46:09.229Z,10.60
2017-11-22T15:48:36.760Z,10.50
2017-11-22T15:51:05.821Z,10.50
2017-11-22T15:53:33.350Z,10.50
2017-11-22T15:56:01.666Z,10.40
2017-11-22T15:58:30.109Z,10.30
2017-11-22T16:00:58.379Z,10.40
2017-11-22T16:03:26.532Z,10.20
2017-11-22T16:05:54.069Z,10.20
2017-11-22T16:08:22.441Z,10.00
2017-11-22T16:10:50.024Z,10.00
2017-11-22T16:13:17.563Z,10.00
2017-11-22T16:15:45.097Z,9.90
2017-11-22T16:18:12.721Z,9.80
2017-11-22T16:20:40.421Z,9.80
2017-11-22T16:23:08.777Z,9.60
2017-11-22T16:25:36.312Z,9.60
2017-11-22T16:28:04.244Z,9.60
2017-11-22T16:30:31.857Z,9.50
2017-11-22T16:33:00.153Z,9.50
2017-11-22T16:35:28.510Z,9.50
2017-11-22T16:37:57.000Z,9.50
2017-11-22T16:40:24.568Z,9.40
2017-11-22T16:42:52.138Z,9.40
2017-11-22T16:45:20.549Z,9.40
2017-11-22T16:47:48.086Z,9.30
2017-11-22T16:50:15.715Z,9.40
2017-11-22T16:52:44.044Z,9.20
2017-11-22T16:55:11.675Z,9.20
2017-11-22T16:57:40.931Z,9.20
2017-11-22T17:00:09.497Z,9.10
2017-11-22T17:02:37.843Z,9.10
2017-11-22T17:05:06.175Z,9.10
2017-11-22T17:07:33.700Z,9.10
2017-11-22T17:10:02.204Z,9.00
2017-11-22T17:12:29.811Z,9.00
2017-11-22T17:14:58.108Z,9.00
2017-11-22T17:17:26.487Z,8.90
2017-11-22T17:19:54.933Z,8.90
2017-11-22T17:22:22.514Z,8.90
2017-11-22T17:24:50.142Z,8.80
2017-11-22T17:27:18.481Z,8.70
2017-11-22T17:29:46.049Z,8.70
2017-11-22T17:32:13.675Z,8.70
2017-11-22T17:34:42.028Z,8.70
2017-11-22T17:37:11.374Z,8.70
2017-11-22T17:39:39.862Z,8.60
2017-11-22T17:42:07.433Z,8.60
2017-11-22T17:44:35.778Z,8.60
2017-11-22T17:47:03.421Z,8.60
2017-11-22T17:49:32.490Z,8.40
2017-11-22T17:52:00.099Z,8.40
2017-11-22T17:54:28.397Z,8.40
2017-11-22T17:56:56.022Z,8.30
2017-11-22T17:59:23.594Z,8.30
2017-11-22T18:01:51.204Z,8.20
2017-11-22T18:04:18.827Z,8.20
2017-11-22T18:06:46.456Z,8.20
2017-11-22T18:09:14.884Z,8.10
2017-11-22T18:11:45.437Z,8.10
2017-11-22T18:14:14.236Z,8.10
2017-11-22T18:16:41.846Z,8.10
2017-11-22T18:19:10.231Z,8.10
2017-11-22T18:21:37.847Z,8.10
2017-11-22T18:24:06.188Z,8.00
2017-11-22T18:26:33.819Z,7.90
2017-11-22T18:29:03.550Z,8.00
2017-11-22T18:31:32.486Z,8.10
2017-11-22T18:34:00.061Z,8.10
2017-11-22T18:36:29.726Z,8.00
2017-11-22T18:38:57.310Z,8.00
2017-11-22T18:41:24.912Z,7.90
2017-11-22T18:43:53.003Z,7.90
2017-11-22T18:46:20.560Z,7.90
2017-11-22T18:51:22.884Z,7.80
2017-11-22T18:53:51.282Z,7.90
2017-11-22T18:56:18.854Z,7.90
2017-11-22T18:58:46.390Z,7.90
2017-11-22T19:01:14.623Z,7.80
2017-11-22T19:03:43.022Z,7.70
2017-11-22T19:06:10.686Z,7.70
2017-11-22T19:08:39.008Z,7.80
2017-11-22T19:11:06.575Z,7.80
2017-11-22T19:13:34.153Z,7.80
2017-11-22T19:16:02.724Z,7.80
2017-11-22T19:18:31.463Z,7.70
2017-11-22T19:20:59.820Z,7.70
2017-11-22T19:23:27.499Z,7.70
2017-11-22T19:25:55.692Z,7.70
2017-11-22T19:28:23.220Z,7.70
2017-11-22T19:30:52.390Z,7.70
2017-11-22T19:33:19.956Z,7.70
2017-11-22T19:35:47.555Z,7.80
2017-11-22T19:38:15.143Z,7.70
2017-11-22T19:40:43.583Z,7.70
2017-11-22T19:43:11.153Z,7.70
2017-11-22T19:45:39.499Z,7.70
2017-11-22T19:48:07.083Z,7.60
2017-11-22T19:50:36.222Z,7.50
2017-11-22T19:53:06.353Z,7.50
2017-11-22T19:55:35.708Z,7.40
2017-11-22T19:58:03.631Z,7.40
2017-11-22T20:00:31.994Z,7.40
2017-11-22T20:03:00.485Z,7.30
2017-11-22T20:05:29.008Z,7.20
2017-11-22T20:08:09.876Z,7.20
2017-11-22T20:10:37.490Z,7.20
2017-11-22T20:13:05.085Z,7.20
2017-11-22T20:15:32.696Z,7.20
2017-11-22T20:18:01.839Z,7.20
2017-11-22T20:20:31.171Z,7.30
2017-11-22T20:22:58.707Z,7.20
2017-11-22T20:25:27.093Z,7.30
2017-11-22T20:27:55.607Z,7.30
2017-11-22T20:30:23.979Z,7.30
2017-11-22T20:32:52.405Z,7.20
2017-11-22T20:35:20.058Z,7.20
2017-11-22T20:37:48.938Z,7.10
2017-11-22T20:40:17.468Z,7.10
2017-11-22T20:42:47.694Z,7.30
2017-11-22T20:45:16.099Z,7.30
2017-11-22T20:47:45.630Z,7.40
2017-11-22T20:50:13.313Z,7.40
2017-11-22T20:52:41.606Z,7.40
2017-11-22T20:55:10.153Z,7.50
2017-11-22T20:57:38.272Z,7.60
2017-11-22T21:00:06.657Z,7.60
2017-11-22T21:02:34.990Z,7.50
2017-11-22T21:05:03.405Z,7.60
2017-11-22T21:07:31.724Z,7.60
2017-11-22T21:10:00.064Z,7.70
2017-11-22T21:12:27.632Z,7.70
2017-11-22T21:14:56.045Z,7.70
2017-11-22T21:17:25.653Z,7.80
2017-11-22T21:19:53.716Z,7.70
2017-11-22T21:22:21.303Z,7.70
2017-11-22T21:24:50.492Z,7.70
2017-11-22T21:27:21.133Z,7.80
2017-11-22T21:29:48.802Z,7.70
2017-11-22T21:32:17.828Z,7.80
2017-11-22T21:34:45.437Z,7.70
2017-11-22T21:37:13.533Z,7.80
2017-11-22T21:39:41.143Z,7.70
2017-11-22T21:42:08.735Z,7.70
2017-11-22T21:44:37.164Z,7.60
2017-11-22T21:47:04.736Z,7.70
2017-11-22T21:49:35.887Z,7.70
2017-11-22T21:52:07.040Z,7.60
2017-11-22T21:54:35.451Z,7.50
2017-11-22T21:57:03.007Z,7.60
2017-11-22T21:59:31.432Z,7.60
2017-11-22T22:02:01.345Z,7.40
2017-11-22T22:04:29.550Z,7.40
2017-11-22T22:06:57.133Z,7.50
2017-11-22T22:09:25.797Z,7.50
2017-11-22T22:11:55.448Z,7.50
2017-11-22T22:14:24.002Z,7.40
2017-11-22T22:16:51.592Z,7.30
2017-11-22T22:19:19.203Z,7.40
2017-11-22T22:21:48.822Z,7.20
2017-11-22T22:24:17.209Z,7.20
2017-11-22T22:26:45.527Z,7.20
2017-11-22T22:29:14.475Z,7.20
2017-11-22T22:31:43.035Z,7.20
2017-11-22T22:34:11.488Z,7.20
2017-11-22T22:36:39.095Z,7.20
2017-11-22T22:39:06.665Z,7.20
2017-11-22T22:41:35.756Z,7.20
2017-11-22T22:44:04.092Z,7.10
2017-11-22T22:46:31.674Z,7.10
2017-11-22T22:48:59.251Z,7.10
2017-11-22T22:51:28.641Z,7.00
2017-11-22T22:53:56.223Z,7.10
2017-11-22T22:56:23.839Z,7.00
2017-11-22T22:58:53.569Z,7.00
2017-11-22T23:01:22.424Z,6.90
2017-11-22T23:03:51.970Z,6.90
2017-11-22T23:06:19.582Z,6.90
2017-11-22T23:08:50.128Z,6.80
2017-11-22T23:11:21.769Z,6.80
2017-11-22T23:13:53.079Z,6.80
2017-11-22T23:16:21.574Z,6.90
2017-11-22T23:18:49.158Z,6.90
2017-11-22T23:21:16.756Z,6.80
2017-11-22T23:23:44.496Z,6.70
2017-11-22T23:26:14.419Z,6.70
2017-11-22T23:28:41.952Z,6.70
2017-11-22T23:31:10.635Z,6.60
2017-11-22T23:33:38.195Z,6.60
2017-11-22T23:36:06.292Z,6.60
2017-11-22T23:38:34.812Z,6.60
2017-11-22T23:41:09.173Z,6.60
2017-11-22T23:43:37.510Z,6.80
2017-11-22T23:46:06.901Z,6.50
2017-11-22T23:48:35.891Z,6.40
2017-11-22T23:51:03.730Z,6.40
2017-11-22T23:53:31.849Z,6.30
2017-11-22T23:56:02.937Z,6.10
2017-11-22T23:58:31.338Z,6.10
